Time;durP1;ratioP1;P1;durP2;ratioP2;P2;SDS_P1;SDS_P2;PMS_P1;PMS_P2;Temp;Humidity;BMP_temperature;BMP_pressure;BME280_temperature;BME280_humidity;BME280_pressure;Samples;Min_cycle;Max_cycle;Signal;HPM_P1;HPM_P2
2023/03/24 00:02:09;;;;;;;6.57;3.93;;;;;;;13.87;65.76;98586.41;6148032;23;20214;-79
2023/03/24 00:04:35;;;;;;;5.18;3.88;;;;;;;13.83;65.67;98590.34;6140533;23;20159;-79
2023/03/24 00:07:02;;;;;;;8.07;4.47;;;;;;;13.76;65.92;98586.59;6144150;23;20227;-79
2023/03/24 00:09:31;;;;;;;6.88;4.65;;;;;;;13.71;66.28;98583.53;6148556;23;20155;-79
2023/03/24 00:11:57;;;;;;;4.68;4.03;;;;;;;13.61;66.43;98580.09;6148103;23;20178;-79
2023/03/24 00:14:23;;;;;;;6.20;4.70;;;;;;;13.54;66.56;98584.28;6148227;23;20160;-79
2023/03/24 00:16:49;;;;;;;5.13;4.03;;;;;;;13.49;66.82;98571.50;6147136;23;20170;-79
2023/03/24 00:19:15;;;;;;;4.77;4.10;;;;;;;13.48;66.83;98570.69;6148508;23;20187;-79
2023/03/24 00:21:42;;;;;;;5.97;4.43;;;;;;;13.47;66.66;98569.03;6148169;23;20238;-79
2023/03/24 00:24:10;;;;;;;4.15;3.75;;;;;;;13.49;66.74;98576.78;6147367;23;20191;-79
2023/03/24 00:26:37;;;;;;;4.70;3.78;;;;;;;13.53;66.67;98578.19;6147297;23;20191;-79
2023/03/24 00:29:05;;;;;;;5.18;4.35;;;;;;;13.54;66.59;98568.47;6147532;23;20245;-79
2023/03/24 00:31:31;;;;;;;4.35;3.88;;;;;;;13.54;66.40;98569.28;6148190;23;20159;-79
2023/03/24 00:33:57;;;;;;;5.47;4.03;;;;;;;13.54;66.59;98564.00;6120938;23;20309;-79
2023/03/24 00:36:25;;;;;;;4.28;3.97;;;;;;;13.53;66.80;98572.03;6147701;23;20155;-79
2023/03/24 00:38:51;;;;;;;5.93;5.30;;;;;;;13.52;66.67;98571.22;6147102;23;20179;-79
2023/03/24 00:41:18;;;;;;;8.23;4.93;;;;;;;13.49;66.81;98568.88;6147659;23;20215;-79
2023/03/24 00:43:45;;;;;;;7.55;5.60;;;;;;;13.48;66.80;98569.84;6147426;23;20187;-79
2023/03/24 00:46:26;;;;;;;6.68;4.60;;;;;;;13.47;66.81;98568.16;6149401;23;20206;-79
2023/03/24 00:49:00;;;;;;;10.32;5.18;;;;;;;13.49;66.85;98572.34;6121258;23;20632;-79
2023/03/24 00:51:30;;;;;;;6.32;5.40;;;;;;;13.52;66.76;98559.84;6149386;23;20159;-79
2023/03/24 00:53:56;;;;;;;6.25;5.10;;;;;;;13.53;66.61;98562.34;6148206;23;20226;-79
2023/03/24 00:56:25;;;;;;;7.47;5.75;;;;;;;13.54;66.77;98556.09;6123285;23;20163;-79
2023/03/24 00:58:53;;;;;;;5.88;4.72;;;;;;;13.55;66.68;98555.09;6122210;23;20167;-79
2023/03/24 01:01:20;;;;;;;5.45;4.95;;;;;;;13.55;66.82;98554.28;6149874;23;20155;-79
2023/03/24 01:03:49;;;;;;;8.32;5.72;;;;;;;13.50;66.92;98550.28;6149271;23;20259;-79
2023/03/24 01:06:21;;;;;;;5.22;4.40;;;;;;;13.47;67.09;98549.69;6147971;23;20186;-79
2023/03/24 01:08:48;;;;;;;9.57;4.55;;;;;;;13.43;67.30;98541.25;6123235;23;20652;-79
2023/03/24 01:11:15;;;;;;;6.10;4.60;;;;;;;13.40;67.19;98546.00;6150208;23;20159;-79
2023/03/24 01:13:41;;;;;;;5.70;4.57;;;;;;;13.36;67.24;98541.97;6150136;23;20162;-79
2023/03/24 01:16:07;;;;;;;6.22;4.97;;;;;;;13.35;67.23;98538.50;6148983;23;20155;-79
2023/03/24 01:18:33;;;;;;;7.10;4.43;;;;;;;13.33;67.28;98532.53;6148658;23;20240;-79
2023/03/24 01:21:00;;;;;;;5.27;3.87;;;;;;;13.30;67.48;98530.16;6123190;23;20390;-79
2023/03/24 01:23:26;;;;;;;4.68;4.25;;;;;;;13.29;67.40;98528.53;6149359;23;20437;-79
2023/03/24 01:25:53;;;;;;;5.45;4.95;;;;;;;13.27;67.44;98525.19;6124036;23;20167;-79
2023/03/24 01:28:23;;;;;;;3.95;3.63;;;;;;;13.25;67.33;98527.91;6148428;23;20981;-79
2023/03/24 01:30:50;;;;;;;5.60;3.88;;;;;;;13.22;67.37;98514.19;6149156;23;20178;-79
2023/03/24 01:33:16;;;;;;;6.90;4.03;;;;;;;13.23;67.25;98518.47;6148159;23;20159;-79
2023/03/24 01:35:41;;;;;;;4.40;3.30;;;;;;;13.26;67.54;98513.81;6146666;23;20536;-79
2023/03/24 01:38:09;;;;;;;5.87;3.73;;;;;;;13.30;67.32;98516.16;6148377;23;20179;-79
2023/03/24 01:40:38;;;;;;;4.55;3.70;;;;;;;13.32;67.24;98517.69;6123075;23;20305;-79
2023/03/24 01:43:06;;;;;;;4.65;4.25;;;;;;;13.35;67.04;98506.84;6122884;23;20556;-79
2023/03/24 01:45:38;;;;;;;6.88;3.80;;;;;;;13.38;66.97;98513.63;6122595;23;20629;-79
2023/03/24 01:48:09;;;;;;;3.80;3.20;;;;;;;13.37;66.86;98515.44;6122008;23;20827;-79
2023/03/24 01:50:35;;;;;;;3.83;3.38;;;;;;;13.37;66.80;98498.81;6122900;23;20175;-79
2023/03/24 01:53:01;;;;;;;4.40;3.17;;;;;;;13.36;66.63;98497.94;6148294;23;20155;-79
2023/03/24 01:55:28;;;;;;;6.90;3.37;;;;;;;13.36;66.70;98502.41;6122334;23;20391;-79
2023/03/24 01:57:57;;;;;;;3.17;2.78;;;;;;;13.36;66.75;98497.94;6122245;23;20187;-79
2023/03/24 02:00:28;;;;;;;3.78;3.13;;;;;;;13.37;66.70;98502.25;6122110;23;20170;-79
2023/03/24 02:03:17;;;;;;;2.80;2.60;;;;;;;13.38;66.57;98501.28;6147669;23;20802;-79
2023/03/24 02:05:51;;;;;;;4.05;2.95;;;;;;;13.38;66.49;98485.44;6122621;23;20233;-79
2023/03/24 02:08:45;;;;;;;6.05;3.15;;;;;;;13.39;66.77;98481.81;6123230;23;20175;-79
2023/03/24 02:11:11;;;;;;;4.38;3.15;;;;;;;13.40;66.66;98472.97;6137310;23;20194;-79
2023/03/24 02:13:46;;;;;;;3.88;2.80;;;;;;;13.40;66.48;98478.22;6122331;23;20155;-79
2023/03/24 02:16:26;;;;;;;4.17;3.37;;;;;;;13.41;66.62;98486.97;6149261;23;20673;-79
2023/03/24 02:19:36;;;;;;;4.38;3.33;;;;;;;13.41;66.50;98482.53;6121868;23;20187;-79
2023/03/24 02:22:41;;;;;;;4.32;2.72;;;;;;;13.40;66.59;98486.16;6147079;23;20166;-79
2023/03/24 02:25:28;;;;;;;5.55;3.35;;;;;;;13.40;66.56;98483.50;6121974;23;20194;-79
2023/03/24 02:28:16;;;;;;;4.97;3.20;;;;;;;13.43;66.55;98490.31;6148444;23;20181;-79
2023/03/24 02:31:16;;;;;;;2.95;2.65;;;;;;;13.43;66.65;98490.31;6098160;23;20215;-79
2023/03/24 02:33:53;;;;;;;3.05;2.75;;;;;;;13.41;66.53;98485.16;6148647;23;20162;-79
2023/03/24 02:36:27;;;;;;;4.47;2.88;;;;;;;13.41;66.62;98490.44;6149162;23;20209;-79
2023/03/24 02:42:55;;;;;;;4.13;3.38;;;;;;;13.36;66.79;98479.47;6146776;23;20196;-79
2023/03/24 02:45:38;;;;;;;5.28;3.10;;;;;;;13.36;66.79;98483.94;6121386;23;20196;-79
2023/03/24 02:48:18;;;;;;;4.60;3.13;;;;;;;13.37;66.75;98498.81;6147492;23;20198;-79
2023/03/24 02:51:08;;;;;;;3.75;3.45;;;;;;;13.38;66.87;98501.28;6147026;23;20749;-79
2023/03/24 02:54:04;;;;;;;5.10;3.85;;;;;;;13.38;66.78;98480.19;6145647;23;20164;-79
2023/03/24 02:56:32;;;;;;;4.85;2.30;;;;;;;13.39;66.66;98475.72;6119551;23;20173;-78
2023/03/24 02:59:20;;;;;;;5.50;3.40;;;;;;;13.38;66.90;98477.53;6121074;23;20518;-79
2023/03/24 03:02:22;;;;;;;3.13;2.75;;;;;;;13.38;66.82;98485.44;6117615;23;20342;-79
2023/03/24 03:05:04;;;;;;;4.50;3.42;;;;;;;13.39;67.00;98466.00;6116728;23;21146;-78
2023/03/24 03:07:37;;;;;;;3.60;3.30;;;;;;;13.36;67.14;98471.56;6144757;23;20184;-78
2023/03/24 03:10:22;;;;;;;3.35;3.00;;;;;;;13.34;67.27;98470.03;6145398;23;20645;-79
2023/03/24 03:12:51;;;;;;;3.20;2.92;;;;;;;13.33;67.43;98460.47;6119494;23;20263;-78
2023/03/24 03:15:40;;;;;;;3.45;2.90;;;;;;;13.32;67.30;98458.84;6144736;23;20287;-78
2023/03/24 03:18:16;;;;;;;5.63;2.75;;;;;;;13.30;67.18;98444.94;5886223;23;5002290;-79
2023/03/24 03:20:49;;;;;;;4.00;2.90;;;;;;;13.32;67.02;98443.84;6145109;23;20612;-79
2023/03/24 03:23:18;;;;;;;3.60;2.70;;;;;;;13.38;66.61;98437.16;6145785;23;20161;-79
2023/03/24 03:25:49;;;;;;;3.03;2.55;;;;;;;13.41;66.32;98452.69;6144929;23;20169;-79
2023/03/24 03:28:22;;;;;;;3.30;3.08;;;;;;;13.45;66.20;98447.00;6119458;23;20192;-79
2023/03/24 03:30:53;;;;;;;3.80;2.85;;;;;;;13.50;66.04;98465.84;6119413;23;20933;-79
2023/03/24 03:33:27;;;;;;;4.82;2.80;;;;;;;13.54;65.93;98463.75;6145555;23;20173;-79
2023/03/24 03:36:01;;;;;;;5.68;2.92;;;;;;;13.56;65.86;98460.97;6145702;23;20214;-78
2023/03/24 03:38:58;;;;;;;3.30;3.00;;;;;;;13.58;66.00;98459.00;6118916;23;20183;-78
2023/03/24 03:41:23;;;;;;;3.28;2.97;;;;;;;13.58;65.82;98470.38;6145183;23;20216;-78
2023/03/24 03:43:49;;;;;;;4.20;3.83;;;;;;;13.57;66.02;98484.56;6145842;23;20187;-78
2023/03/24 03:46:16;;;;;;;4.60;2.70;;;;;;;13.54;66.06;98484.84;6120972;23;20171;-79
2023/03/24 03:48:43;;;;;;;3.53;3.22;;;;;;;13.53;66.01;98509.59;6118375;23;20669;-78
2023/03/24 03:51:09;;;;;;;4.85;3.20;;;;;;;13.50;66.36;98523.91;6118918;23;20623;-78
2023/03/24 03:53:49;;;;;;;4.80;2.90;;;;;;;13.55;66.01;98523.44;6118238;23;20163;-78
2023/03/24 03:56:18;;;;;;;3.05;2.85;;;;;;;13.75;64.90;98528.69;6118907;23;20413;-78
2023/03/24 03:58:54;;;;;;;2.33;2.08;;;;;;;14.03;63.18;98534.81;6117979;23;20190;-78
2023/03/24 04:01:24;;;;;;;2.57;1.50;;;;;;;14.31;61.94;98533.00;6067515;23;20208;-78
2023/03/24 04:04:56;;;;;;;1.52;1.40;;;;;;;14.83;58.63;98551.75;6130533;23;20207;-79
2023/03/24 04:07:56;;;;;;;3.60;2.20;;;;;;;15.38;56.13;98556.03;6118594;23;20644;-79
2023/03/24 04:11:29;;;;;;;2.83;2.10;;;;;;;16.00;54.81;98577.97;6144485;23;20176;-79
2023/03/24 04:14:45;;;;;;;2.55;2.17;;;;;;;16.24;55.28;98584.38;6082954;23;20212;-78
2023/03/24 04:18:02;;;;;;;3.13;2.55;;;;;;;16.28;56.74;98596.31;6118134;23;20769;-78
2023/03/24 04:21:01;;;;;;;4.15;2.40;;;;;;;16.20;57.69;98598.91;6118137;23;20167;-78
2023/03/24 04:23:32;;;;;;;6.60;2.97;;;;;;;16.06;58.72;98606.47;6118509;23;20239;-80
2023/03/24 04:26:14;;;;;;;3.30;2.60;;;;;;;15.97;59.22;98620.66;6118325;23;20163;-79
2023/03/24 04:29:03;;;;;;;5.60;3.22;;;;;;;15.86;59.95;98602.41;6117091;23;20659;-79
2023/03/24 04:31:33;;;;;;;3.97;3.58;;;;;;;15.75;60.40;98605.31;6143483;23;20204;-79
2023/03/24 04:34:12;;;;;;;3.83;3.33;;;;;;;15.69;60.89;98614.69;6144572;23;20153;-79
2023/03/24 04:36:44;;;;;;;5.35;3.05;;;;;;;15.63;61.32;98605.50;6118424;23;20159;-79
2023/03/24 04:39:33;;;;;;;3.20;2.83;;;;;;;15.58;61.57;98617.53;6117712;23;20155;-79
2023/03/24 04:42:04;;;;;;;8.23;3.70;;;;;;;15.50;62.40;98628.91;6118237;23;20164;-79
2023/03/24 04:44:32;;;;;;;4.63;3.38;;;;;;;15.44;62.54;98626.84;6117830;23;20220;-79
2023/03/24 04:47:23;;;;;;;6.22;3.70;;;;;;;15.36;63.00;98616.19;6140310;23;20231;-79
2023/03/24 04:50:09;;;;;;;5.35;3.47;;;;;;;15.28;63.79;98630.19;6118016;23;20250;-79
2023/03/24 04:52:40;;;;;;;3.50;3.20;;;;;;;15.23;64.24;98624.53;6093680;23;20168;-79
2023/03/24 04:55:20;;;;;;;3.92;3.15;;;;;;;15.16;64.75;98628.75;6117826;23;20155;-80
2023/03/24 04:57:45;;;;;;;3.53;3.22;;;;;;;15.11;65.15;98633.66;6117814;23;20191;-79
2023/03/24 05:00:12;;;;;;;3.00;2.80;;;;;;;15.06;65.18;98628.81;6116045;23;20167;-79
2023/03/24 05:02:37;;;;;;;2.80;2.40;;;;;;;15.03;65.30;98624.66;6144501;23;20231;-79
2023/03/24 05:05:13;;;;;;;3.45;2.75;;;;;;;14.99;65.25;98625.13;6117859;23;20267;-79
2023/03/24 05:07:42;;;;;;;4.53;3.85;;;;;;;14.97;65.56;98632.38;6118012;23;20263;-80
2023/03/24 05:10:11;;;;;;;3.55;2.97;;;;;;;14.95;65.60;98631.69;6118455;23;21008;-79
2023/03/24 05:12:42;;;;;;;3.65;3.15;;;;;;;14.94;65.69;98627.41;6118448;23;20573;-79
2023/03/24 05:15:40;;;;;;;4.57;4.18;;;;;;;14.92;65.90;98629.34;6120864;23;20251;-79
2023/03/24 05:18:26;;;;;;;4.53;3.67;;;;;;;14.89;65.99;98621.72;6118151;23;20196;-79
2023/03/24 05:20:52;;;;;;;4.43;3.63;;;;;;;14.87;66.06;98619.22;6144633;23;20163;-79
2023/03/24 05:23:19;;;;;;;7.13;4.10;;;;;;;14.85;66.10;98612.41;6118064;23;20175;-79
2023/03/24 05:25:47;;;;;;;3.58;2.72;;;;;;;14.86;66.10;98624.66;6117961;23;20177;-78
2023/03/24 05:28:14;;;;;;;4.20;3.75;;;;;;;14.81;66.24;98615.34;6118986;23;20185;-80
2023/03/24 05:30:40;;;;;;;5.37;3.70;;;;;;;14.82;66.09;98621.47;6119607;23;20164;-78
2023/03/24 05:33:15;;;;;;;3.47;3.03;;;;;;;14.80;66.35;98626.09;6119829;23;20482;-78
2023/03/24 05:35:40;;;;;;;4.97;3.90;;;;;;;14.80;66.24;98620.81;6119469;23;20190;-78
2023/03/24 05:38:06;;;;;;;5.00;4.10;;;;;;;14.74;66.60;98606.38;6119521;23;20191;-78
2023/03/24 05:40:33;;;;;;;5.20;4.50;;;;;;;14.73;66.59;98609.16;6118356;23;20461;-77
2023/03/24 05:43:16;;;;;;;5.45;3.67;;;;;;;14.70;66.86;98610.28;6119405;23;20155;-77
2023/03/24 05:45:49;;;;;;;4.60;4.07;;;;;;;14.69;66.83;98615.69;6119111;23;20186;-79
2023/03/24 05:48:26;;;;;;;4.25;3.28;;;;;;;14.68;66.89;98614.88;6119671;23;20298;-77
2023/03/24 05:51:05;;;;;;;4.88;4.10;;;;;;;14.67;66.89;98626.44;6120545;23;20163;-77
2023/03/24 05:53:31;;;;;;;3.83;3.33;;;;;;;14.68;66.95;98630.72;6119732;23;20238;-78
2023/03/24 05:56:11;;;;;;;6.88;4.50;;;;;;;14.69;66.99;98634.19;6120095;23;20163;-78
2023/03/24 05:59:00;;;;;;;4.78;4.28;;;;;;;14.67;67.26;98637.00;6131113;23;20191;-80
2023/03/24 06:01:47;;;;;;;4.65;4.20;;;;;;;14.66;67.20;98640.59;6146496;23;20167;-77
2023/03/24 06:04:19;;;;;;;5.22;4.30;;;;;;;14.65;67.46;98640.78;6119991;23;20416;-78
2023/03/24 06:06:45;;;;;;;4.70;4.20;;;;;;;14.64;67.64;98647.88;6120342;23;20264;-78
2023/03/24 06:09:15;;;;;;;5.10;4.30;;;;;;;14.60;67.83;98647.31;6118926;23;20803;-79
2023/03/24 06:11:42;;;;;;;4.80;4.40;;;;;;;14.59;68.24;98648.31;6119210;23;20534;-79
2023/03/24 06:14:09;;;;;;;4.65;3.72;;;;;;;14.56;68.21;98656.53;6119581;23;20155;-79
2023/03/24 06:16:48;;;;;;;4.93;4.20;;;;;;;14.55;68.43;98664.59;6118824;23;20206;-79
2023/03/24 06:19:15;;;;;;;5.63;3.97;;;;;;;14.53;68.35;98667.41;6118069;23;20685;-79
2023/03/24 06:22:01;;;;;;;4.43;3.88;;;;;;;14.49;68.80;98668.63;6120145;23;20230;-79
2023/03/24 06:24:31;;;;;;;5.07;4.07;;;;;;;14.48;68.99;98668.78;6119062;23;20218;-79
2023/03/24 06:27:07;;;;;;;4.47;4.03;;;;;;;14.44;69.32;98677.97;6096465;23;20167;-79
2023/03/24 06:29:33;;;;;;;4.57;4.18;;;;;;;14.43;69.38;98684.25;6118902;23;20166;-79
2023/03/24 06:31:59;;;;;;;6.75;4.68;;;;;;;14.42;69.53;98685.19;6119659;23;20174;-79
2023/03/24 06:34:28;;;;;;;5.10;4.55;;;;;;;14.39;69.87;98686.31;6120064;23;20148;-79
2023/03/24 06:37:10;;;;;;;9.10;4.43;;;;;;;14.36;70.29;98694.53;6120812;23;20194;-79
2023/03/24 06:39:35;;;;;;;4.40;4.00;;;;;;;14.32;70.63;98694.00;6120412;23;20167;-79
2023/03/24 06:42:01;;;;;;;4.57;3.97;;;;;;;14.27;70.91;98680.38;6109050;23;20166;-79
2023/03/24 06:44:28;;;;;;;6.28;4.70;;;;;;;14.26;70.94;98691.13;6111838;23;20191;-79
2023/03/24 06:46:53;;;;;;;4.33;3.93;;;;;;;14.24;71.03;98693.06;6135563;23;20164;-79
2023/03/24 06:49:19;;;;;;;5.20;4.80;;;;;;;14.25;71.14;98697.34;6111546;23;20202;-79
2023/03/24 06:51:45;;;;;;;5.40;4.27;;;;;;;14.25;71.18;98692.06;6111676;23;20159;-79
2023/03/24 06:54:12;;;;;;;5.90;5.13;;;;;;;14.23;71.50;98707.22;6111569;23;20163;-79
2023/03/24 06:56:37;;;;;;;7.03;5.43;;;;;;;14.22;71.39;98714.31;6113455;23;20185;-79
2023/03/24 06:59:03;;;;;;;7.17;4.70;;;;;;;14.25;71.34;98714.03;6112341;23;20179;-79
2023/03/24 07:01:33;;;;;;;6.55;4.85;;;;;;;14.22;71.63;98724.88;6111795;23;20229;-79
2023/03/24 07:04:20;;;;;;;6.55;4.90;;;;;;;14.20;71.83;98731.28;6123173;23;20178;-79
2023/03/24 07:06:46;;;;;;;6.43;5.25;;;;;;;14.17;71.90;98735.88;6139709;23;20214;-79
2023/03/24 07:09:16;;;;;;;7.40;6.20;;;;;;;14.17;72.04;98740.31;6111443;23;20179;-79
2023/03/24 07:11:42;;;;;;;6.20;4.85;;;;;;;14.17;72.00;98742.97;6113642;23;20546;-79
2023/03/24 07:14:08;;;;;;;5.43;4.90;;;;;;;14.19;71.81;98745.47;6111740;23;20614;-79
2023/03/24 07:16:35;;;;;;;6.63;5.20;;;;;;;14.17;71.90;98743.78;6111038;23;20684;-79
2023/03/24 07:19:26;;;;;;;6.82;5.78;;;;;;;14.15;71.97;98755.50;6112491;23;20194;-80
2023/03/24 07:22:08;;;;;;;6.95;6.05;;;;;;;14.14;72.36;98761.72;6112937;23;20534;-80
2023/03/24 07:24:50;;;;;;;6.78;5.68;;;;;;;14.11;72.54;98764.66;6095002;23;20195;-80
2023/03/24 07:27:36;;;;;;;8.38;5.22;;;;;;;14.08;72.96;98760.50;6107668;23;20334;-79
2023/03/24 07:30:03;;;;;;;7.00;5.67;;;;;;;14.11;72.92;98770.78;6110643;23;20981;-81
2023/03/24 07:32:40;;;;;;;6.13;5.05;;;;;;;14.10;72.93;98771.75;6111081;23;20725;-80
2023/03/24 07:35:09;;;;;;;7.60;6.00;;;;;;;14.10;73.22;98749.81;6137563;23;20817;-80
2023/03/24 07:37:35;;;;;;;6.00;5.30;;;;;;;14.09;73.36;98737.56;6111923;23;20176;-80
2023/03/24 07:40:05;;;;;;;8.75;5.60;;;;;;;14.07;73.52;98740.34;6113475;23;20183;-80
2023/03/24 07:42:31;;;;;;;5.78;5.18;;;;;;;14.06;73.51;98725.47;6112323;23;20248;-80
2023/03/24 07:45:27;;;;;;;6.25;5.65;;;;;;;14.08;73.52;98744.66;6108462;23;20251;-80
2023/03/24 07:47:55;;;;;;;6.57;4.50;;;;;;;14.07;73.48;98731.56;6107513;23;20207;-80
2023/03/24 07:50:21;;;;;;;6.85;4.75;;;;;;;14.06;73.41;98738.66;6109106;23;20989;-80
2023/03/24 07:52:48;;;;;;;12.23;4.80;;;;;;;14.09;73.66;98740.19;6105817;23;20171;-79
2023/03/24 07:55:15;;;;;;;7.13;4.45;;;;;;;14.10;73.62;98734.78;6110144;23;20164;-80
2023/03/24 07:57:51;;;;;;;4.03;3.45;;;;;;;14.12;73.41;98737.25;6110495;23;20168;-79
2023/03/24 08:00:18;;;;;;;4.73;3.90;;;;;;;14.12;73.30;98756.63;6112744;23;20202;-79
2023/03/24 08:02:59;;;;;;;5.25;4.18;;;;;;;14.16;72.93;98754.50;6112279;23;20185;-80
2023/03/24 08:05:43;;;;;;;7.78;4.05;;;;;;;14.20;72.54;98762.97;6132700;23;20237;-80
2023/03/24 08:08:17;;;;;;;4.35;3.42;;;;;;;14.23;72.56;98763.53;6135041;23;20846;-80
2023/03/24 08:10:44;;;;;;;5.93;3.70;;;;;;;14.23;72.52;98755.63;6135566;23;20168;-79
2023/03/24 08:13:10;;;;;;;4.50;3.35;;;;;;;14.25;72.22;98734.34;6135521;23;20695;-80
2023/03/24 08:15:36;;;;;;;2.90;2.60;;;;;;;14.22;72.33;98708.22;6137001;23;20213;-81
2023/03/24 08:18:02;;;;;;;5.85;3.80;;;;;;;14.25;72.21;98698.19;6137113;23;20408;-80
2023/03/24 08:20:28;;;;;;;5.70;3.67;;;;;;;14.27;72.17;98688.31;6136260;23;20180;-80
2023/03/24 08:22:55;;;;;;;3.40;3.10;;;;;;;14.28;71.89;98689.13;6137933;23;20164;-81
2023/03/24 08:25:23;;;;;;;5.95;3.67;;;;;;;14.33;71.60;98693.00;6138233;23;20545;-80
2023/03/24 08:27:48;;;;;;;3.92;3.35;;;;;;;14.38;71.13;98716.38;6134257;23;20568;-80
2023/03/24 08:30:19;;;;;;;3.03;2.57;;;;;;;14.47;70.59;98717.31;6136611;23;20160;-81
2023/03/24 08:32:53;;;;;;;3.20;2.40;;;;;;;14.52;69.95;98728.28;6138641;23;20516;-81
2023/03/24 08:35:23;;;;;;;2.97;2.60;;;;;;;14.59;69.67;98724.13;6139176;23;20235;-80
2023/03/24 08:37:48;;;;;;;3.65;2.35;;;;;;;14.68;69.16;98736.47;6137826;23;20195;-80
2023/03/24 08:40:18;;;;;;;3.50;3.20;;;;;;;14.72;68.98;98756.34;6137029;23;20168;-80
2023/03/24 08:42:48;;;;;;;3.40;2.72;;;;;;;14.81;68.49;98744.91;6137772;23;20191;-80
2023/03/24 08:45:14;;;;;;;3.88;3.25;;;;;;;14.87;68.29;98763.81;6138093;23;20219;-80
2023/03/24 08:47:40;;;;;;;3.13;2.33;;;;;;;14.88;67.79;98758.38;6136094;23;20181;-80
2023/03/24 08:50:08;;;;;;;5.37;2.87;;;;;;;14.92;67.17;98758.91;6137260;23;20165;-80
2023/03/24 08:52:33;;;;;;;3.20;2.78;;;;;;;14.98;67.00;98759.16;6136776;23;20217;-80
2023/03/24 08:54:59;;;;;;;3.53;2.50;;;;;;;15.02;66.65;98759.72;6136330;23;20157;-80
2023/03/24 08:57:25;;;;;;;5.55;3.33;;;;;;;15.05;66.61;98767.34;6137336;23;20287;-80
2023/03/24 08:59:51;;;;;;;2.37;2.17;;;;;;;15.11;66.30;98779.97;6138347;23;20180;-80
2023/03/24 09:02:16;;;;;;;5.30;2.30;;;;;;;15.10;66.16;98778.31;6137959;23;20929;-80
2023/03/24 09:04:42;;;;;;;3.47;2.57;;;;;;;15.11;66.02;98772.03;6138878;23;20495;-80
2023/03/24 09:07:08;;;;;;;3.67;2.50;;;;;;;15.10;65.91;98767.75;6141249;23;20169;-80
2023/03/24 09:09:34;;;;;;;3.20;2.85;;;;;;;15.12;65.82;98767.56;6139599;23;20187;-80
2023/03/24 09:11:59;;;;;;;3.50;3.20;;;;;;;15.13;65.94;98758.69;6141498;23;20165;-80
2023/03/24 09:14:26;;;;;;;4.97;3.20;;;;;;;15.13;65.86;98762.16;6139781;23;20165;-79
2023/03/24 09:16:51;;;;;;;3.20;2.90;;;;;;;15.12;65.94;98749.91;6140695;23;20169;-79
2023/03/24 09:19:17;;;;;;;10.33;3.03;;;;;;;15.11;66.00;98761.47;6141130;23;20240;-80
2023/03/24 09:21:46;;;;;;;5.73;2.97;;;;;;;15.13;66.23;98764.78;6141267;23;20191;-80
2023/03/24 09:24:12;;;;;;;2.95;2.75;;;;;;;15.14;66.12;98758.50;6140476;23;20204;-80
2023/03/24 09:26:37;;;;;;;2.63;2.42;;;;;;;15.19;65.96;98763.38;6140589;23;20160;-80
2023/03/24 09:29:03;;;;;;;4.27;2.70;;;;;;;15.23;66.04;98759.47;6141964;23;20189;-79
2023/03/24 09:31:29;;;;;;;2.90;2.70;;;;;;;15.31;65.79;98774.56;6137877;23;20175;-80
2023/03/24 09:33:54;;;;;;;2.77;2.57;;;;;;;15.33;65.58;98778.72;6141515;23;20159;-80
2023/03/24 09:36:20;;;;;;;5.97;3.20;;;;;;;15.37;65.58;98793.34;6142673;23;20160;-80
2023/03/24 09:38:46;;;;;;;4.40;2.20;;;;;;;15.40;65.30;98801.00;6137519;23;20245;-80
2023/03/24 09:41:29;;;;;;;3.47;2.50;;;;;;;15.41;65.18;98802.66;6141588;23;20183;-81
2023/03/24 09:44:16;;;;;;;2.75;2.50;;;;;;;15.43;64.95;98792.75;6140487;23;20197;-80
2023/03/24 09:46:53;;;;;;;3.40;2.90;;;;;;;15.49;64.91;98792.16;6138682;23;20169;-80
2023/03/24 09:49:26;;;;;;;3.20;2.75;;;;;;;15.54;64.95;98793.53;6139227;23;20203;-77
2023/03/24 09:52:03;;;;;;;2.45;2.25;;;;;;;15.59;64.75;98791.28;6138488;23;20484;-80
2023/03/24 09:54:34;;;;;;;2.22;2.05;;;;;;;15.59;64.18;98794.75;6137865;23;20189;-80
2023/03/24 09:57:00;;;;;;;2.53;2.33;;;;;;;15.60;63.88;98806.97;6139779;23;20170;-80
2023/03/24 09:59:37;;;;;;;2.35;1.60;;;;;;;15.58;63.49;98821.34;6140616;23;20188;-80
2023/03/24 10:02:11;;;;;;;5.80;2.25;;;;;;;15.60;63.20;98835.28;6142446;23;20200;-80
2023/03/24 10:04:36;;;;;;;2.97;1.40;;;;;;;15.54;62.60;98818.19;6141529;23;20540;-79
2023/03/24 10:07:46;;;;;;;1.77;1.60;;;;;;;15.51;62.59;98807.88;6142148;23;20916;-79
2023/03/24 10:10:23;;;;;;;2.05;1.85;;;;;;;15.45;62.96;98800.56;5966562;23;20218;-79
2023/03/24 10:12:49;;;;;;;3.80;1.63;;;;;;;15.41;63.62;98778.00;5991922;23;20745;-80
2023/03/24 10:15:41;;;;;;;3.28;3.08;;;;;;;15.32;63.71;98757.72;6070393;23;20173;-78
2023/03/24 10:18:24;;;;;;;1.33;1.23;;;;;;;15.23;63.91;98831.72;6140529;23;20838;-79
2023/03/24 10:20:55;;;;;;;2.85;1.90;;;;;;;15.18;64.56;98884.22;6139011;23;20169;-80
2023/03/24 10:23:37;;;;;;;1.80;1.58;;;;;;;15.16;64.85;98872.13;6140514;23;20152;-80
2023/03/24 10:26:23;;;;;;;2.10;1.50;;;;;;;15.13;65.03;98851.25;6140933;23;20170;-80
2023/03/24 10:29:20;;;;;;;1.80;1.60;;;;;;;15.15;65.38;98867.78;6138755;23;20189;-79
2023/03/24 10:31:50;;;;;;;2.08;1.70;;;;;;;15.22;65.47;98845.91;6137771;23;20197;-79
2023/03/24 10:34:16;;;;;;;2.92;1.80;;;;;;;15.34;65.45;98872.19;6137596;23;20389;-79
2023/03/24 10:36:43;;;;;;;2.97;1.57;;;;;;;15.36;65.45;98865.75;6137693;23;20170;-80
2023/03/24 10:39:18;;;;;;;5.63;1.35;;;;;;;15.35;65.04;98869.41;6139595;23;20452;-79
2023/03/24 10:41:43;;;;;;;1.50;1.35;;;;;;;15.31;64.92;98849.50;6139602;23;20579;-80
2023/03/24 10:44:11;;;;;;;3.30;1.47;;;;;;;15.29;65.02;98858.56;6138677;23;20693;-79
2023/03/24 10:46:45;;;;;;;1.73;1.60;;;;;;;15.27;64.77;98866.66;6137457;23;20173;-79
2023/03/24 10:49:10;;;;;;;2.92;2.65;;;;;;;15.26;64.87;98857.88;6137167;23;20211;-79
2023/03/24 10:51:36;;;;;;;4.53;3.20;;;;;;;15.25;64.73;98861.50;6114138;23;20177;-79
2023/03/24 10:54:22;;;;;;;3.10;2.07;;;;;;;15.29;65.11;98855.94;6136610;23;20865;-79
2023/03/24 10:56:57;;;;;;;2.38;1.20;;;;;;;15.27;64.98;98861.34;6151646;23;20168;-79
2023/03/24 10:59:26;;;;;;;1.45;1.23;;;;;;;15.22;64.75;98858.31;6123697;23;20305;-80
2023/03/24 11:02:13;;;;;;;1.63;1.23;;;;;;;15.18;64.65;98862.25;6152083;23;20168;-80
2023/03/24 11:04:43;;;;;;;1.90;1.40;;;;;;;15.14;64.78;98866.97;6151174;23;20397;-79
2023/03/24 11:07:20;;;;;;;1.58;1.38;;;;;;;15.08;64.81;98856.97;6150233;23;20169;-80
2023/03/24 11:09:57;;;;;;;1.58;1.30;;;;;;;15.07;64.97;98855.31;6150011;23;21149;-79
2023/03/24 11:12:26;;;;;;;1.58;1.00;;;;;;;15.04;64.59;98851.16;6151890;23;20222;-81
2023/03/24 11:14:59;;;;;;;1.65;1.00;;;;;;;15.00;64.29;98848.94;6150551;23;20153;-80
2023/03/24 11:17:25;;;;;;;1.90;1.23;;;;;;;14.97;64.29;98854.50;6152022;23;20661;-80
2023/03/24 11:19:53;;;;;;;1.13;1.00;;;;;;;15.01;63.94;98837.34;6151582;23;20476;-80
2023/03/24 11:22:19;;;;;;;1.20;1.10;;;;;;;15.01;63.75;98835.56;6150958;23;20612;-81
2023/03/24 11:24:50;;;;;;;2.50;1.00;;;;;;;15.00;63.59;98825.13;6122310;23;20555;-80
2023/03/24 11:27:17;;;;;;;0.88;0.82;;;;;;;15.08;63.19;98825.22;6147977;23;20239;-79
2023/03/24 11:29:48;;;;;;;1.65;1.08;;;;;;;15.14;62.68;98827.28;6147958;23;20172;-81
2023/03/24 11:32:21;;;;;;;1.00;0.90;;;;;;;15.22;62.71;98829.22;6152744;23;20188;-81
2023/03/24 11:34:56;;;;;;;1.40;0.90;;;;;;;15.27;62.28;98843.66;6154290;23;20390;-81
2023/03/24 11:37:32;;;;;;;0.90;0.80;;;;;;;15.34;62.04;98848.34;6153191;23;20234;-81
2023/03/24 11:40:10;;;;;;;2.67;1.35;;;;;;;15.39;62.00;98848.75;6154044;23;20163;-80
2023/03/24 11:42:53;;;;;;;4.00;1.08;;;;;;;15.44;61.67;98842.03;6153088;23;20219;-80
2023/03/24 11:45:24;;;;;;;2.33;1.08;;;;;;;15.47;61.58;98852.34;6153061;23;20214;-80
2023/03/24 11:47:52;;;;;;;1.15;1.00;;;;;;;15.56;61.57;98857.75;6152551;23;20196;-80
2023/03/24 11:50:25;;;;;;;2.35;1.52;;;;;;;15.65;61.67;98849.72;6155649;23;20162;-80
2023/03/24 11:53:16;;;;;;;1.23;1.10;;;;;;;15.76;61.71;98861.13;6154083;23;20172;-80
2023/03/24 11:56:01;;;;;;;1.30;1.20;;;;;;;15.85;61.33;98849.63;6127079;23;20162;-81
2023/03/24 11:58:44;;;;;;;1.17;0.95;;;;;;;15.88;61.28;98855.47;6151472;23;20193;-80
2023/03/24 12:01:18;;;;;;;3.17;1.83;;;;;;;15.84;60.99;98866.53;6155164;23;20200;-80
2023/03/24 12:03:53;;;;;;;2.00;1.48;;;;;;;15.79;61.24;98871.44;6153311;23;20232;-80
2023/03/24 12:06:53;;;;;;;2.63;1.50;;;;;;;15.73;61.39;98854.31;6153509;23;20179;-80
2023/03/24 12:09:31;;;;;;;4.53;1.40;;;;;;;15.67;61.37;98863.66;6152326;23;20186;-81